createdAt,value
2018-08-09T05:55:57.804Z,99.90
2018-08-09T05:58:26.464Z,99.10
2018-08-09T06:00:55.787Z,98.90
2018-08-09T06:03:24.314Z,98.70
2018-08-09T06:05:52.935Z,98.30
2018-08-09T06:08:21.500Z,97.90
2018-08-09T06:10:50.181Z,97.80
2018-08-09T06:13:19.130Z,97.40
2018-08-09T06:15:48.448Z,97.30
2018-08-09T06:18:17.020Z,97.20
2018-08-09T06:20:46.796Z,97.00
2018-08-09T06:23:15.410Z,96.80
2018-08-09T06:25:43.944Z,96.70
2018-08-09T06:28:12.520Z,96.60
2018-08-09T06:30:41.136Z,96.40
2018-08-09T06:33:11.504Z,96.40
2018-08-09T06:35:40.070Z,96.40
2018-08-09T06:38:08.619Z,96.30
2018-08-09T06:40:37.248Z,96.10
2018-08-09T06:43:05.915Z,95.80
2018-08-09T06:45:34.986Z,96.00
2018-08-09T06:48:03.557Z,95.10
2018-08-09T06:50:32.864Z,94.70
2018-08-09T06:53:01.901Z,94.40
2018-08-09T06:55:32.618Z,94.00
2018-08-09T06:58:01.156Z,93.80
2018-08-09T07:00:29.800Z,93.80
2018-08-09T07:02:59.635Z,94.20
2018-08-09T07:05:29.090Z,94.00
2018-08-09T07:07:57.585Z,94.10
2018-08-09T07:10:26.262Z,94.10
2018-08-09T07:12:54.954Z,93.90
2018-08-09T07:15:23.415Z,93.90
2018-08-09T07:17:53.203Z,93.80
2018-08-09T07:20:21.922Z,93.40
2018-08-09T07:22:51.521Z,93.20
2018-08-09T07:25:20.152Z,92.90
2018-08-09T07:27:49.664Z,92.90
2018-08-09T07:30:18.313Z,92.90
2018-08-09T07:32:46.883Z,92.80
2018-08-09T07:35:15.427Z,92.70
2018-08-09T07:37:44.050Z,92.70
2018-08-09T07:40:13.219Z,92.70
2018-08-09T07:42:42.798Z,92.40
2018-08-09T07:45:12.811Z,92.00
2018-08-09T07:47:41.390Z,91.50
2018-08-09T07:50:10.800Z,91.10
2018-08-09T07:52:39.581Z,90.40
2018-08-09T07:55:09.682Z,89.80
2018-08-09T07:57:38.668Z,89.20
2018-08-09T08:00:09.526Z,88.20
2018-08-09T08:02:38.161Z,87.20
2018-08-09T08:05:07.001Z,86.00
2018-08-09T08:07:35.626Z,85.80
2018-08-09T08:10:05.160Z,85.30
2018-08-09T08:12:33.721Z,85.00
2018-08-09T08:15:02.274Z,85.60
2018-08-09T08:17:30.805Z,84.10
2018-08-09T08:19:59.361Z,84.10
2018-08-09T08:22:28.586Z,84.30
2018-08-09T08:24:57.112Z,83.10
2018-08-09T08:27:25.684Z,82.60
2018-08-09T08:29:54.481Z,82.10
2018-08-09T08:32:23.007Z,82.40
2018-08-09T08:34:51.564Z,81.30
2018-08-09T08:37:20.170Z,80.00
2018-08-09T08:39:48.916Z,79.20
2018-08-09T08:42:17.462Z,78.20
2018-08-09T08:44:45.999Z,77.30
2018-08-09T08:47:14.599Z,76.90
2018-08-09T08:49:43.136Z,76.60
2018-08-09T08:52:11.694Z,76.40
2018-08-09T08:54:40.242Z,76.20
2018-08-09T08:57:08.785Z,75.80
2018-08-09T08:59:37.381Z,76.10
2018-08-09T09:02:05.881Z,76.00
2018-08-09T09:04:34.467Z,75.90
2018-08-09T09:07:02.985Z,76.60
2018-08-09T09:09:31.628Z,76.80
2018-08-09T09:12:00.148Z,77.40
2018-08-09T09:14:28.775Z,77.70
2018-08-09T09:16:57.329Z,78.20
2018-08-09T09:19:25.951Z,78.20
2018-08-09T09:21:54.494Z,78.10
2018-08-09T09:24:23.013Z,78.40
2018-08-09T09:26:51.525Z,78.50
2018-08-09T09:29:20.902Z,78.50
2018-08-09T09:31:49.407Z,78.30
2018-08-09T09:34:17.912Z,78.00
2018-08-09T09:36:46.407Z,77.30
2018-08-09T09:39:14.905Z,76.40
2018-08-09T09:41:43.389Z,75.20
2018-08-09T09:44:11.895Z,74.50
2018-08-09T09:46:40.412Z,73.80
2018-08-09T09:49:09.754Z,73.10
2018-08-09T09:51:38.330Z,72.20
2018-08-09T09:54:06.860Z,70.90
2018-08-09T09:56:35.404Z,70.40
2018-08-09T09:59:04.052Z,70.10
2018-08-09T10:01:33.744Z,69.60
2018-08-09T10:04:02.938Z,69.10
2018-08-09T10:06:32.157Z,68.10
2018-08-09T10:09:00.919Z,67.30
2018-08-09T10:11:29.723Z,66.90
2018-08-09T10:13:58.987Z,66.50
2018-08-09T10:16:27.580Z,66.30
2018-08-09T10:18:56.209Z,66.10
2018-08-09T10:21:25.455Z,66.20
2018-08-09T10:23:54.014Z,65.00
2018-08-09T10:26:23.512Z,65.30
2018-08-09T10:28:52.088Z,65.90
2018-08-09T10:31:20.741Z,66.80
2018-08-09T10:33:49.279Z,67.80
2018-08-09T10:36:18.786Z,68.40
2018-08-09T10:38:47.386Z,69.10
2018-08-09T10:41:16.056Z,69.50
2018-08-09T10:43:44.566Z,69.80
2018-08-09T10:46:13.079Z,70.20
2018-08-09T10:48:41.593Z,70.60
2018-08-09T10:51:10.196Z,71.00
2018-08-09T10:53:38.778Z,70.80
2018-08-09T10:56:07.371Z,70.60
2018-08-09T10:58:35.860Z,70.80
2018-08-09T11:01:04.479Z,69.80
2018-08-09T11:03:33.015Z,69.10
2018-08-09T11:06:01.548Z,67.80
2018-08-09T11:08:30.073Z,66.20
2018-08-09T11:11:02.957Z,65.40
2018-08-09T11:13:31.532Z,64.10
2018-08-09T11:16:00.098Z,63.20
2018-08-09T11:18:28.658Z,61.70
2018-08-09T11:20:57.270Z,60.50
2018-08-09T11:23:25.971Z,59.70
2018-08-09T11:25:54.539Z,58.80
2018-08-09T11:28:23.078Z,58.30
2018-08-09T11:30:51.644Z,57.80
2018-08-09T11:33:20.216Z,57.20
2018-08-09T11:35:48.804Z,57.40
2018-08-09T11:38:17.318Z,57.80
2018-08-09T11:40:45.920Z,58.50
2018-08-09T11:43:15.371Z,59.30
2018-08-09T11:45:43.924Z,60.20
2018-08-09T11:48:12.438Z,60.70
2018-08-09T11:50:41.090Z,61.40
2018-08-09T11:53:09.633Z,61.80
2018-08-09T11:55:38.207Z,62.00
2018-08-09T11:58:06.870Z,62.30
2018-08-09T12:00:35.507Z,62.40
2018-08-09T12:03:04.307Z,62.40
2018-08-09T12:05:32.815Z,62.30
2018-08-09T12:08:01.299Z,61.80
2018-08-09T12:10:29.907Z,61.40
2018-08-09T12:12:58.401Z,60.80
2018-08-09T12:15:26.965Z,60.20
2018-08-09T12:17:55.496Z,59.90
2018-08-09T12:20:24.050Z,59.40
2018-08-09T12:22:53.428Z,59.10
2018-08-09T12:25:21.974Z,58.40
2018-08-09T12:27:50.529Z,58.10
2018-08-09T12:30:19.192Z,57.60
2018-08-09T12:32:47.704Z,57.00
2018-08-09T12:35:16.212Z,56.00
2018-08-09T12:37:44.799Z,55.30
2018-08-09T12:40:13.750Z,54.50
2018-08-09T12:42:42.250Z,54.00
2018-08-09T12:45:12.312Z,53.60
2018-08-09T12:47:41.289Z,53.70
2018-08-09T12:50:12.653Z,53.10
2018-08-09T12:52:42.163Z,53.40
2018-08-09T12:55:11.234Z,53.60
2018-08-09T12:57:39.785Z,54.10
2018-08-09T13:00:10.883Z,54.70
2018-08-09T13:02:39.500Z,55.20
2018-08-09T13:05:09.564Z,55.20
2018-08-09T13:07:38.130Z,56.00
2018-08-09T13:10:08.963Z,57.00
2018-08-09T13:12:37.564Z,57.40
2018-08-09T13:15:08.602Z,57.80
2018-08-09T13:17:37.373Z,58.40
2018-08-09T13:20:07.020Z,59.10
2018-08-09T13:22:35.874Z,60.00
2018-08-09T13:25:04.940Z,61.20
2018-08-09T13:27:33.474Z,61.70
2018-08-09T13:30:02.083Z,62.10
2018-08-09T13:32:30.631Z,62.70
2018-08-09T13:34:59.142Z,63.30
2018-08-09T13:37:27.728Z,63.70
2018-08-09T13:39:56.516Z,63.90
2018-08-09T13:42:25.036Z,64.90
2018-08-09T13:44:53.519Z,67.10
2018-08-09T13:47:22.042Z,65.50
2018-08-09T13:49:50.619Z,65.90
2018-08-09T13:52:19.151Z,65.70
2018-08-09T13:54:47.652Z,65.50
2018-08-09T13:57:16.254Z,64.80
2018-08-09T13:59:44.900Z,65.50
2018-08-09T14:02:13.405Z,66.50
2018-08-09T14:04:41.923Z,67.10
2018-08-09T14:07:10.440Z,67.00
2018-08-09T14:09:38.999Z,68.40
2018-08-09T14:12:07.517Z,68.90
2018-08-09T14:14:36.041Z,69.20
2018-08-09T14:17:05.088Z,70.30
2018-08-09T14:19:33.749Z,70.90
2018-08-09T14:22:02.260Z,73.90
2018-08-09T14:24:30.828Z,76.30
2018-08-09T14:26:59.370Z,78.40
2018-08-09T14:29:28.000Z,80.20
2018-08-09T14:31:56.567Z,91.50
2018-08-09T14:34:25.052Z,93.90
2018-08-09T14:36:54.558Z,96.30
2018-08-09T14:39:23.320Z,98.70
2018-08-09T14:41:51.842Z,99.90
2018-08-09T14:44:20.370Z,99.90
2018-08-09T14:46:48.979Z,99.90
2018-08-09T14:49:18.912Z,99.90
2018-08-09T14:51:48.446Z,99.90
2018-08-09T14:54:16.972Z,99.90
2018-08-09T14:56:45.571Z,99.90
2018-08-09T14:59:14.115Z,99.90
2018-08-09T15:01:42.661Z,99.90
2018-08-09T15:04:11.224Z,99.90
2018-08-09T15:06:39.754Z,99.90
2018-08-09T15:09:11.287Z,99.90
2018-08-09T15:11:39.792Z,99.90
2018-08-09T15:14:09.275Z,99.90
2018-08-09T15:16:37.871Z,99.90
2018-08-09T15:19:06.504Z,99.90
2018-08-09T15:21:40.858Z,99.90
2018-08-09T15:24:09.386Z,99.90
2018-08-09T15:26:37.887Z,99.90
2018-08-09T15:29:06.756Z,99.90
2018-08-09T15:31:35.350Z,99.90
2018-08-09T15:34:03.842Z,99.90
2018-08-09T15:36:32.997Z,99.90
2018-08-09T15:39:01.553Z,99.90
2018-08-09T15:41:30.097Z,99.50
2018-08-09T15:43:58.684Z,99.00
2018-08-09T15:46:28.306Z,99.40
2018-08-09T15:48:56.911Z,99.10
2018-08-09T15:51:25.490Z,98.30
2018-08-09T15:53:54.062Z,98.10
2018-08-09T15:56:22.658Z,97.30
2018-08-09T15:58:51.415Z,96.90
2018-08-09T16:01:20.096Z,96.30
2018-08-09T16:03:49.630Z,93.00
2018-08-09T16:06:18.287Z,84.30
2018-08-09T16:08:46.882Z,66.70
2018-08-09T16:11:15.535Z,53.30
2018-08-09T16:13:44.125Z,44.80
2018-08-09T16:16:12.802Z,41.30
2018-08-09T16:18:41.344Z,39.60
2018-08-09T16:21:10.201Z,37.50
2018-08-09T16:23:38.789Z,35.40
2018-08-09T16:26:07.420Z,35.90
2018-08-09T16:28:37.253Z,37.40
2018-08-09T16:31:07.489Z,39.40
2018-08-09T16:33:36.055Z,40.90
2018-08-09T16:36:04.657Z,39.80
2018-08-09T16:38:34.359Z,37.90
2018-08-09T16:41:02.892Z,36.50
2018-08-09T16:43:31.472Z,35.20
2018-08-09T16:46:00.717Z,35.10
2018-08-09T16:48:30.494Z,34.20
2018-08-09T16:50:59.515Z,32.70
2018-08-09T16:53:28.778Z,32.20
2018-08-09T16:55:57.663Z,30.90
2018-08-09T16:58:27.315Z,30.70
2018-08-09T17:00:56.635Z,30.80
2018-08-09T17:03:25.227Z,30.60
2018-08-09T17:05:55.383Z,32.00
2018-08-09T17:08:24.947Z,35.40
2018-08-09T17:10:54.741Z,39.40
2018-08-09T17:15:52.089Z,46.60
2018-08-09T17:18:22.147Z,49.80
2018-08-09T17:20:52.538Z,52.30
2018-08-09T17:23:23.225Z,54.30
2018-08-09T17:25:51.855Z,56.10
2018-08-09T17:28:20.462Z,57.70
2018-08-09T17:30:49.147Z,59.30
2018-08-09T17:33:17.663Z,60.60
2018-08-09T17:35:46.169Z,62.10
2018-08-09T17:38:15.589Z,62.70
2018-08-09T17:40:45.384Z,63.10
2018-08-09T17:43:14.686Z,64.20
2018-08-09T17:45:43.283Z,65.70
2018-08-09T17:48:11.770Z,66.00
2018-08-09T17:50:40.293Z,66.70
2018-08-09T17:53:09.253Z,68.30
2018-08-09T17:55:37.810Z,69.30
2018-08-09T17:58:06.266Z,70.10
2018-08-09T18:00:35.589Z,70.90
2018-08-09T18:03:07.500Z,72.00
2018-08-09T18:05:35.998Z,72.60
2018-08-09T18:08:04.676Z,73.50
2018-08-09T18:10:34.965Z,74.40
2018-08-09T18:13:03.472Z,75.50
2018-08-09T18:15:32.245Z,76.50
2018-08-09T18:18:01.644Z,77.00
2018-08-09T18:20:31.949Z,78.00
2018-08-09T18:23:00.502Z,79.00
2018-08-09T18:25:29.786Z,79.90
2018-08-09T18:27:58.378Z,80.80
2018-08-09T18:31:56.199Z,82.00
2018-08-09T18:34:24.675Z,83.20
2018-08-09T18:36:53.222Z,84.80
2018-08-09T18:39:21.716Z,85.70
2018-08-09T18:41:50.210Z,86.30
2018-08-09T18:44:18.741Z,87.00
2018-08-09T18:46:47.208Z,87.30
2018-08-09T18:49:15.728Z,87.70
2018-08-09T18:51:44.320Z,88.10
2018-08-09T18:54:13.103Z,88.30
2018-08-09T18:56:43.805Z,88.10
2018-08-09T18:59:12.333Z,88.20
2018-08-09T19:01:40.798Z,88.70
2018-08-09T19:04:09.516Z,89.10
2018-08-09T19:06:39.921Z,89.40
2018-08-09T19:09:09.829Z,90.00
2018-08-09T19:11:38.311Z,90.70
2018-08-09T19:14:06.789Z,91.10
2018-08-09T19:16:35.290Z,91.50
2018-08-09T19:19:03.838Z,91.60
2018-08-09T19:21:32.320Z,92.00
2018-08-09T19:24:00.852Z,92.80
2018-08-09T19:26:29.338Z,93.30
2018-08-09T19:28:57.898Z,93.70
2018-08-09T19:31:26.404Z,94.20
2018-08-09T19:33:55.906Z,94.70
2018-08-09T19:36:24.431Z,94.90
2018-08-09T19:38:52.916Z,95.10
2018-08-09T19:41:21.457Z,95.30
2018-08-09T19:43:49.958Z,95.90
2018-08-09T19:46:18.524Z,95.60
2018-08-09T19:48:47.075Z,95.60
2018-08-09T19:51:15.791Z,95.60
2018-08-09T19:53:44.298Z,95.90
2018-08-09T19:56:13.034Z,96.20
2018-08-09T19:58:41.719Z,96.30
2018-08-09T20:01:10.339Z,96.40
2018-08-09T20:03:39.513Z,96.20
2018-08-09T20:06:08.179Z,95.90
2018-08-09T20:08:36.806Z,95.00
2018-08-09T20:11:05.409Z,94.60
2018-08-09T20:13:33.973Z,93.70
2018-08-09T20:16:02.449Z,93.40
2018-08-09T20:18:31.535Z,93.30
2018-08-09T20:21:00.170Z,93.30
2018-08-09T20:23:28.675Z,93.50
2018-08-09T20:25:57.244Z,93.50
2018-08-09T20:28:25.763Z,93.60
2018-08-09T20:30:54.389Z,93.60
2018-08-09T20:33:22.872Z,93.80
2018-08-09T20:35:51.405Z,93.80
2018-08-09T20:38:19.969Z,93.80
2018-08-09T20:40:48.554Z,94.00
2018-08-09T20:43:17.057Z,94.00
2018-08-09T20:45:45.586Z,94.20
2018-08-09T20:48:14.083Z,94.60
2018-08-09T20:50:42.701Z,94.40
2018-08-09T20:53:11.234Z,94.40
2018-08-09T20:55:40.015Z,94.40
2018-08-09T20:58:08.482Z,94.50
2018-08-09T21:00:37.444Z,94.50
2018-08-09T21:03:06.011Z,94.80
2018-08-09T21:05:38.552Z,95.00
2018-08-09T21:08:07.218Z,95.00
2018-08-09T21:10:35.784Z,95.10
2018-08-09T21:13:04.310Z,94.80
2018-08-09T21:15:32.904Z,94.30
2018-08-09T21:18:01.406Z,94.20
2018-08-09T21:20:30.083Z,93.50
2018-08-09T21:22:58.664Z,93.00
2018-08-09T21:25:27.217Z,92.80
2018-08-09T21:27:55.741Z,92.70
2018-08-09T21:30:24.311Z,92.90
